createdAt,value
2017-11-17T00:00:31.565Z,101663.59
2017-11-17T00:02:57.353Z,101663.32
2017-11-17T00:05:23.137Z,101664.58
2017-11-17T00:07:48.921Z,101662.95
2017-11-17T00:10:14.761Z,101657.97
2017-11-17T00:12:40.541Z,101657.81
2017-11-17T00:15:06.314Z,101654.50
2017-11-17T00:17:32.109Z,101658.98
2017-11-17T00:19:57.897Z,101652.84
2017-11-17T00:22:23.679Z,101649.71
2017-11-17T00:24:49.463Z,101650.31
2017-11-17T00:27:15.273Z,101645.98
2017-11-17T00:29:41.046Z,101637.49
2017-11-17T00:32:06.829Z,101640.50
2017-11-17T00:34:32.602Z,101638.84
2017-11-17T00:36:58.376Z,101630.09
2017-11-17T00:39:24.157Z,101642.64
2017-11-17T00:41:49.933Z,101648.39
2017-11-17T00:44:15.715Z,101656.82
2017-11-17T00:46:41.492Z,101659.20
2017-11-17T00:49:07.268Z,101657.47
2017-11-17T00:51:33.045Z,101649.70
2017-11-17T00:53:58.821Z,101656.97
2017-11-17T00:56:24.601Z,101660.79
2017-11-17T00:58:50.374Z,101657.66
2017-11-17T01:01:16.152Z,101650.20
2017-11-17T01:03:41.930Z,101657.15
2017-11-17T01:06:07.727Z,101653.80
2017-11-17T01:08:33.513Z,101658.27
2017-11-17T01:10:59.294Z,101659.67
2017-11-17T01:13:25.075Z,101657.97
2017-11-17T01:15:50.853Z,101648.15
2017-11-17T01:18:16.635Z,101645.56
2017-11-17T01:20:42.421Z,101649.56
2017-11-17T01:23:08.198Z,101646.06
2017-11-17T01:25:34.009Z,101645.65
2017-11-17T01:27:59.789Z,101644.20
2017-11-17T01:30:25.567Z,101647.88
2017-11-17T01:32:51.344Z,101648.84
2017-11-17T01:35:17.121Z,101650.50
2017-11-17T01:37:42.904Z,101648.52
2017-11-17T01:40:08.685Z,101644.69
2017-11-17T01:42:34.469Z,101645.31
2017-11-17T01:45:00.250Z,101639.02
2017-11-17T01:47:26.021Z,101642.81
2017-11-17T01:49:51.830Z,101633.13
2017-11-17T01:52:17.605Z,101638.52
2017-11-17T01:54:43.387Z,101644.53
2017-11-17T01:57:09.189Z,101645.14
2017-11-17T01:59:35.000Z,101652.33
2017-11-17T02:02:00.793Z,101648.84
2017-11-17T02:04:26.582Z,101651.43
2017-11-17T02:06:52.357Z,101654.56
2017-11-17T02:09:18.136Z,101649.92
2017-11-17T02:11:43.911Z,101648.06
2017-11-17T02:14:09.716Z,101650.11
2017-11-17T02:16:35.492Z,101647.09
2017-11-17T02:19:01.274Z,101652.55
2017-11-17T02:21:27.051Z,101657.45
2017-11-17T02:23:52.872Z,101651.13
2017-11-17T02:26:18.649Z,101649.80
2017-11-17T02:28:44.425Z,101658.66
2017-11-17T02:31:10.217Z,101651.55
2017-11-17T02:33:36.038Z,101653.90
2017-11-17T02:36:01.857Z,101649.17
2017-11-17T02:38:27.641Z,101650.50
2017-11-17T02:40:53.457Z,101653.57
2017-11-17T02:43:19.245Z,101648.75
2017-11-17T02:45:45.036Z,101651.67
2017-11-17T02:48:10.813Z,101645.73
2017-11-17T02:50:36.605Z,101644.27
2017-11-17T02:53:02.419Z,101646.95
2017-11-17T02:55:28.237Z,101648.69
2017-11-17T02:57:54.062Z,101647.09
2017-11-17T03:00:19.859Z,101645.70
2017-11-17T03:02:45.669Z,101636.61
2017-11-17T03:05:11.476Z,101637.37
2017-11-17T03:07:37.253Z,101637.79
2017-11-17T03:10:03.045Z,101641.13
2017-11-17T03:12:28.816Z,101641.25
2017-11-17T03:14:54.590Z,101640.92
2017-11-17T03:17:20.369Z,101641.42
2017-11-17T03:19:46.151Z,101643.36
2017-11-17T03:22:11.965Z,101644.32
2017-11-17T03:24:37.741Z,101638.78
2017-11-17T03:27:03.565Z,101646.09
2017-11-17T03:29:29.404Z,101645.61
2017-11-17T03:31:55.181Z,101640.08
2017-11-17T03:34:20.965Z,101644.89
2017-11-17T03:36:46.745Z,101643.66
2017-11-17T03:39:12.521Z,101644.75
2017-11-17T03:41:38.304Z,101650.41
2017-11-17T03:44:04.082Z,101650.05
2017-11-17T03:46:29.862Z,101641.97
2017-11-17T03:48:55.637Z,101642.52
2017-11-17T03:51:21.415Z,101651.58
2017-11-17T03:53:47.198Z,101648.51
2017-11-17T03:56:13.024Z,101645.16
2017-11-17T03:58:38.797Z,101648.45
2017-11-17T04:01:04.582Z,101652.81
2017-11-17T04:03:30.353Z,101655.91
2017-11-17T04:05:56.170Z,101660.43
2017-11-17T04:08:21.954Z,101661.30
2017-11-17T04:10:47.725Z,101662.12
2017-11-17T04:13:13.534Z,101665.94
2017-11-17T04:15:39.314Z,101660.13
2017-11-17T04:18:05.092Z,101657.39
2017-11-17T04:20:30.878Z,101659.05
2017-11-17T04:22:56.702Z,101656.19
2017-11-17T04:25:22.485Z,101664.28
2017-11-17T04:27:48.282Z,101664.50
2017-11-17T04:30:14.065Z,101670.97
2017-11-17T04:32:39.890Z,101666.99
2017-11-17T04:35:05.661Z,101682.53
2017-11-17T04:37:31.434Z,101683.16
2017-11-17T04:39:57.214Z,101679.06
2017-11-17T04:42:22.994Z,101689.58
2017-11-17T04:44:48.777Z,101689.24
2017-11-17T04:47:14.573Z,101688.82
2017-11-17T04:49:47.381Z,101693.61
2017-11-17T04:52:13.157Z,101691.41
2017-11-17T04:54:38.934Z,101693.30
2017-11-17T04:57:04.713Z,101698.61
2017-11-17T04:59:30.489Z,101691.73
2017-11-17T05:01:56.273Z,101697.04
2017-11-17T05:04:22.052Z,101691.73
2017-11-17T05:06:47.837Z,101693.81
2017-11-17T05:09:13.621Z,101690.89
2017-11-17T05:11:39.400Z,101695.05
2017-11-17T05:14:05.178Z,101696.80
2017-11-17T05:16:30.961Z,101700.71
2017-11-17T05:18:56.745Z,101697.13
2017-11-17T05:21:22.524Z,101693.12
2017-11-17T05:23:48.305Z,101697.10
2017-11-17T05:26:14.082Z,101696.50
2017-11-17T05:28:39.874Z,101702.28
2017-11-17T05:31:05.653Z,101706.31
2017-11-17T05:33:31.463Z,101707.87
2017-11-17T05:35:57.276Z,101714.50
2017-11-17T05:38:23.064Z,101718.39
2017-11-17T05:40:48.885Z,101717.24
2017-11-17T05:43:14.674Z,101716.43
2017-11-17T05:45:40.460Z,101724.44
2017-11-17T05:48:06.246Z,101731.31
2017-11-17T05:50:32.037Z,101733.23
2017-11-17T05:52:57.822Z,101731.58
2017-11-17T05:55:23.617Z,101735.06
2017-11-17T05:57:49.408Z,101733.59
2017-11-17T06:00:15.185Z,101730.77
2017-11-17T06:02:40.966Z,101726.76
2017-11-17T06:05:06.823Z,101730.25
2017-11-17T06:07:32.610Z,101729.34
2017-11-17T06:09:58.430Z,101737.39
2017-11-17T06:12:24.237Z,101728.42
2017-11-17T06:14:50.030Z,101740.58
2017-11-17T06:17:15.817Z,101741.84
2017-11-17T06:19:41.607Z,101743.86
2017-11-17T06:22:07.420Z,101746.39
2017-11-17T06:24:33.211Z,101749.70
2017-11-17T06:26:59.045Z,101752.86
2017-11-17T06:29:24.830Z,101758.91
2017-11-17T06:31:50.641Z,101765.23
2017-11-17T06:34:16.445Z,101768.58
2017-11-17T06:36:42.249Z,101776.05
2017-11-17T06:39:08.029Z,101768.83
2017-11-17T06:41:33.813Z,101770.84
2017-11-17T06:43:59.645Z,101774.55
2017-11-17T06:46:25.443Z,101774.78
2017-11-17T06:48:51.317Z,101780.06
2017-11-17T06:51:17.099Z,101778.09
2017-11-17T06:53:42.909Z,101777.73
2017-11-17T06:56:08.738Z,101794.53
2017-11-17T06:58:34.533Z,101792.37
2017-11-17T07:01:00.537Z,101797.92
2017-11-17T07:03:26.315Z,101800.84
2017-11-17T07:05:52.094Z,101804.45
2017-11-17T07:08:17.876Z,101810.69
2017-11-17T07:10:43.726Z,101807.77
2017-11-17T07:13:09.548Z,101813.78
2017-11-17T07:15:35.357Z,101817.27
2017-11-17T07:18:01.189Z,101822.66
2017-11-17T07:20:26.974Z,101827.55
2017-11-17T07:22:52.752Z,101833.62
2017-11-17T07:25:18.534Z,101834.02
2017-11-17T07:27:44.353Z,101838.91
2017-11-17T07:30:10.135Z,101844.03
2017-11-17T07:32:35.909Z,101844.61
2017-11-17T07:35:01.701Z,101848.59
2017-11-17T07:37:27.481Z,101846.14
2017-11-17T07:39:53.285Z,101849.33
2017-11-17T07:42:19.073Z,101852.07
2017-11-17T07:44:44.883Z,101850.20
2017-11-17T07:47:10.669Z,101851.84
2017-11-17T07:49:36.499Z,101847.15
2017-11-17T07:52:02.282Z,101851.25
2017-11-17T07:54:28.061Z,101858.17
2017-11-17T07:56:53.850Z,101866.52
2017-11-17T07:59:19.631Z,101863.87
2017-11-17T08:01:45.418Z,101867.42
2017-11-17T08:04:11.334Z,101877.48
2017-11-17T08:06:37.113Z,101873.50
2017-11-17T08:09:02.918Z,101873.16
2017-11-17T08:11:28.737Z,101877.41
2017-11-17T08:13:54.529Z,101877.87
2017-11-17T08:16:20.323Z,101881.41
2017-11-17T08:18:46.112Z,101894.01
2017-11-17T08:21:11.915Z,101889.39
2017-11-17T08:23:37.697Z,101891.24
2017-11-17T08:26:03.513Z,101895.36
2017-11-17T08:28:29.306Z,101897.89
2017-11-17T08:30:55.125Z,101896.66
2017-11-17T08:33:20.906Z,101902.98
2017-11-17T08:35:46.717Z,101905.70
2017-11-17T08:38:12.504Z,101907.37
2017-11-17T08:40:38.335Z,101907.03
2017-11-17T08:43:04.113Z,101915.23
2017-11-17T08:45:29.911Z,101918.24
2017-11-17T08:47:55.724Z,101913.55
2017-11-17T08:50:21.506Z,101920.03
2017-11-17T08:52:47.284Z,101921.45
2017-11-17T08:55:13.085Z,101921.28
2017-11-17T08:57:38.929Z,101921.63
2017-11-17T09:00:04.725Z,101922.56
2017-11-17T09:02:30.502Z,101917.12
2017-11-17T09:04:56.284Z,101926.34
2017-11-17T09:07:22.073Z,101926.69
2017-11-17T09:09:47.854Z,101928.72
2017-11-17T09:12:13.650Z,101928.02
2017-11-17T09:14:39.469Z,101929.02
2017-11-17T09:17:05.254Z,101932.09
2017-11-17T09:19:31.072Z,101932.05
2017-11-17T09:21:56.895Z,101940.69
2017-11-17T09:24:22.678Z,101930.95
2017-11-17T09:26:48.689Z,101943.53
2017-11-17T09:29:14.475Z,101945.06
2017-11-17T09:31:40.416Z,101942.78
2017-11-17T09:34:06.201Z,101947.80
2017-11-17T09:36:31.994Z,101951.47
2017-11-17T09:38:57.865Z,101957.31
2017-11-17T09:41:23.658Z,101962.08
2017-11-17T09:43:49.630Z,101962.05
2017-11-17T09:46:15.419Z,101961.21
2017-11-17T09:48:41.217Z,101959.37
2017-11-17T09:51:06.993Z,101963.30
2017-11-17T09:53:32.811Z,101963.52
2017-11-17T09:55:58.694Z,101959.32
2017-11-17T09:58:24.642Z,101963.90
2017-11-17T10:00:50.526Z,101957.72
2017-11-17T10:03:16.310Z,101960.45
2017-11-17T10:05:42.269Z,101955.49
2017-11-17T10:08:08.226Z,101961.44
2017-11-17T10:10:34.046Z,101958.23
2017-11-17T10:12:59.829Z,101964.22
2017-11-17T10:15:25.642Z,101959.09
2017-11-17T10:17:51.484Z,101953.53
2017-11-17T10:20:19.206Z,101957.41
2017-11-17T10:22:44.986Z,101957.69
2017-11-17T10:25:11.867Z,101955.52
2017-11-17T10:27:37.696Z,101961.69
2017-11-17T10:30:03.494Z,101960.99
2017-11-17T10:32:29.460Z,101957.34
2017-11-17T10:34:55.253Z,101954.93
2017-11-17T10:37:21.032Z,101957.85
2017-11-17T10:39:46.937Z,101964.44
2017-11-17T10:42:12.738Z,101969.00
2017-11-17T10:44:38.575Z,101973.45
2017-11-17T10:47:04.353Z,101972.56
2017-11-17T10:49:30.179Z,101970.50
2017-11-17T10:51:55.977Z,101959.11
2017-11-17T10:54:21.793Z,101960.13
2017-11-17T10:56:47.573Z,101962.17
2017-11-17T10:59:17.444Z,101965.98
2017-11-17T11:01:43.281Z,101967.72
2017-11-17T11:04:09.065Z,101968.80
2017-11-17T11:06:34.843Z,101961.70
2017-11-17T11:09:00.637Z,101969.34
2017-11-17T11:11:32.682Z,101973.84
2017-11-17T11:13:58.462Z,101973.56
2017-11-17T11:16:24.246Z,101972.41
2017-11-17T11:18:50.046Z,101977.90
2017-11-17T11:21:15.899Z,101973.88
2017-11-17T11:23:41.696Z,101972.52
2017-11-17T11:26:07.546Z,101969.05
2017-11-17T11:28:33.337Z,101969.76
2017-11-17T11:30:59.129Z,101963.67
2017-11-17T11:33:24.966Z,101966.71
2017-11-17T11:35:50.742Z,101970.06
2017-11-17T11:38:16.519Z,101970.80
2017-11-17T11:40:42.317Z,101967.25
2017-11-17T11:43:08.102Z,101966.38
2017-11-17T11:45:33.998Z,101967.47
2017-11-17T11:47:59.799Z,101968.16
2017-11-17T11:50:25.593Z,101967.25
2017-11-17T11:52:51.381Z,101967.90
2017-11-17T11:55:17.161Z,101966.16
2017-11-17T11:57:42.936Z,101965.17
2017-11-17T12:00:08.759Z,101966.27
2017-11-17T12:02:34.557Z,101963.62
2017-11-17T12:35:20.060Z,101964.38
2017-11-17T12:37:45.876Z,101958.38
2017-11-17T12:40:11.653Z,101955.36
2017-11-17T12:42:37.469Z,101962.73
2017-11-17T12:45:03.279Z,101962.53
2017-11-17T12:47:29.065Z,101953.98
2017-11-17T12:49:54.840Z,101955.92
2017-11-17T12:52:21.455Z,101956.49
2017-11-17T12:54:47.401Z,101954.31
2017-11-17T12:57:13.181Z,101954.16
2017-11-17T12:59:39.003Z,101952.63
2017-11-17T13:02:04.825Z,101948.99
2017-11-17T13:04:30.611Z,101950.09
2017-11-17T13:06:56.549Z,101957.95
2017-11-17T13:09:22.324Z,101953.22
2017-11-17T13:11:48.114Z,101965.94
2017-11-17T13:14:13.901Z,101962.58
2017-11-17T13:16:39.777Z,101956.63
2017-11-17T13:19:05.554Z,101957.05
2017-11-17T13:21:31.361Z,101955.63
2017-11-17T13:23:57.182Z,101949.14
2017-11-17T13:26:22.968Z,101956.60
2017-11-17T13:28:48.761Z,101964.34
2017-11-17T13:31:14.542Z,101965.70
2017-11-17T13:33:40.319Z,101964.11
2017-11-17T13:36:06.158Z,101965.52
2017-11-17T13:38:31.937Z,101965.05
2017-11-17T13:40:57.734Z,101961.33
2017-11-17T13:43:23.514Z,101965.48
2017-11-17T13:45:49.310Z,101968.41
2017-11-17T13:48:15.088Z,101961.25
2017-11-17T13:50:40.921Z,101963.17
2017-11-17T13:53:06.702Z,101960.97
2017-11-17T13:55:32.618Z,101959.70
2017-11-17T13:57:58.408Z,101959.02
2017-11-17T14:00:24.253Z,101954.09
2017-11-17T14:02:50.071Z,101954.25
2017-11-17T14:05:15.966Z,101951.60
2017-11-17T14:07:41.820Z,101954.09
2017-11-17T14:10:07.614Z,101951.98
2017-11-17T14:12:33.389Z,101955.72
2017-11-17T14:14:59.205Z,101955.33
2017-11-17T14:17:24.979Z,101953.35
2017-11-17T14:19:50.761Z,101958.03
2017-11-17T14:22:16.709Z,101955.66
2017-11-17T14:24:42.490Z,101959.22
2017-11-17T14:27:08.309Z,101964.96
2017-11-17T14:29:34.097Z,101969.36
2017-11-17T14:31:59.889Z,101963.00
2017-11-17T14:34:25.681Z,101970.38
2017-11-17T14:36:51.459Z,101971.03
2017-11-17T14:39:17.349Z,101971.28
2017-11-17T14:41:43.121Z,101974.86
2017-11-17T14:44:08.905Z,101964.48
2017-11-17T14:46:34.764Z,101960.88
2017-11-17T14:49:00.641Z,101969.93
2017-11-17T14:51:26.455Z,101965.65
2017-11-17T14:53:53.753Z,101962.46
2017-11-17T14:56:19.598Z,101960.16
2017-11-17T14:58:46.450Z,101965.47
2017-11-17T15:01:12.247Z,101966.86
2017-11-17T15:03:38.109Z,101967.22
2017-11-17T15:06:04.054Z,101964.02
2017-11-17T15:08:29.843Z,101962.80
2017-11-17T15:10:55.658Z,101968.44
2017-11-17T15:13:21.496Z,101967.90
2017-11-17T15:15:47.286Z,101970.75
2017-11-17T15:18:13.091Z,101974.02
2017-11-17T15:20:38.921Z,101967.28
2017-11-17T15:23:04.768Z,101968.72
2017-11-17T15:25:30.582Z,101970.77
2017-11-17T15:27:56.363Z,101972.33
2017-11-17T15:30:22.189Z,101970.10
2017-11-17T15:32:47.980Z,101977.03
2017-11-17T15:35:13.802Z,101964.27
2017-11-17T15:37:39.857Z,101969.34
2017-11-17T15:40:05.653Z,101964.69
2017-11-17T15:42:31.441Z,101971.50
2017-11-17T15:44:57.234Z,101965.80
2017-11-17T15:47:23.045Z,101963.02
2017-11-17T15:49:48.834Z,101965.84
2017-11-17T15:52:14.810Z,101960.13
2017-11-17T15:54:40.639Z,101965.64
2017-11-17T15:57:06.443Z,101960.66
2017-11-17T15:59:32.234Z,101964.02
2017-11-17T16:01:58.025Z,101967.14
2017-11-17T16:04:23.837Z,101963.53
2017-11-17T16:06:49.625Z,101966.97
2017-11-17T16:09:15.560Z,101967.65
2017-11-17T16:11:41.349Z,101972.41
2017-11-17T16:14:07.176Z,101962.66
2017-11-17T16:16:32.964Z,101967.08
2017-11-17T16:18:58.862Z,101963.78
2017-11-17T16:21:24.647Z,101965.17
2017-11-17T16:23:50.580Z,101960.91
2017-11-17T16:26:16.382Z,101964.16
2017-11-17T16:28:42.187Z,101961.53
2017-11-17T16:31:07.984Z,101949.61
2017-11-17T16:33:33.886Z,101948.68
2017-11-17T16:35:59.719Z,101950.68
2017-11-17T16:38:25.552Z,101950.43
2017-11-17T16:40:51.334Z,101952.20
2017-11-17T16:43:17.135Z,101957.19
2017-11-17T16:45:42.987Z,101954.40
2017-11-17T16:48:08.877Z,101948.56
2017-11-17T16:50:34.888Z,101952.55
2017-11-17T16:53:00.669Z,101954.48
2017-11-17T16:55:26.624Z,101958.11
2017-11-17T16:57:52.420Z,101957.69
2017-11-17T17:00:18.719Z,101959.86
2017-11-17T17:02:44.538Z,101958.05
2017-11-17T17:05:11.165Z,101955.33
2017-11-17T17:07:36.993Z,101957.53
2017-11-17T17:10:02.784Z,101954.96
2017-11-17T17:12:28.577Z,101952.68
2017-11-17T17:14:54.378Z,101943.33
2017-11-17T17:17:20.175Z,101950.59
2017-11-17T17:19:45.952Z,101943.77
2017-11-17T17:22:11.778Z,101941.66
2017-11-17T17:24:37.567Z,101939.86
2017-11-17T17:27:03.436Z,101935.69
2017-11-17T17:29:29.231Z,101935.63
2017-11-17T17:31:55.429Z,101941.55
2017-11-17T17:34:21.210Z,101945.94
2017-11-17T17:36:46.997Z,101949.70
2017-11-17T17:39:12.781Z,101947.02
2017-11-17T17:41:38.633Z,101940.09
2017-11-17T17:44:04.606Z,101936.92
2017-11-17T17:46:30.485Z,101940.05
2017-11-17T17:48:56.265Z,101941.80
2017-11-17T17:51:22.056Z,101942.39
2017-11-17T17:53:47.941Z,101943.73
2017-11-17T17:56:13.725Z,101937.20
2017-11-17T17:58:39.510Z,101936.50
2017-11-17T18:01:05.353Z,101935.29
2017-11-17T18:03:31.153Z,101935.03
2017-11-17T18:05:56.939Z,101936.08
2017-11-17T18:08:22.728Z,101937.33
2017-11-17T18:10:48.721Z,101935.23
2017-11-17T18:13:14.502Z,101933.00
2017-11-17T18:15:40.434Z,101930.95
2017-11-17T18:18:06.218Z,101926.70
2017-11-17T18:20:32.065Z,101922.05
2017-11-17T18:22:58.972Z,101926.44
2017-11-17T18:25:25.436Z,101929.17
2017-11-17T18:27:51.366Z,101926.21
2017-11-17T18:30:19.890Z,101917.48
2017-11-17T18:32:45.709Z,101926.44
2017-11-17T18:35:11.605Z,101927.91
2017-11-17T18:37:38.370Z,101925.26
2017-11-17T18:40:04.173Z,101921.56
2017-11-17T18:42:30.086Z,101923.77
2017-11-17T18:44:55.869Z,101920.19
2017-11-17T18:47:21.780Z,101921.95
2017-11-17T18:49:47.594Z,101923.45
2017-11-17T18:52:13.378Z,101928.69
2017-11-17T18:54:39.245Z,101930.37
2017-11-17T18:57:05.098Z,101926.69
2017-11-17T18:59:30.918Z,101918.88
2017-11-17T19:01:56.795Z,101918.58
2017-11-17T19:04:22.533Z,101915.98
2017-11-17T19:06:48.600Z,101918.44
2017-11-17T19:09:14.402Z,101917.36
2017-11-17T19:11:40.193Z,101921.53
2017-11-17T19:14:06.121Z,101924.05
2017-11-17T19:16:32.009Z,101924.46
2017-11-17T19:18:57.866Z,101924.30
2017-11-17T19:21:23.670Z,101925.42
2017-11-17T19:23:49.466Z,101924.75
2017-11-17T19:26:15.289Z,101922.78
2017-11-17T19:28:41.086Z,101923.56
2017-11-17T19:31:06.898Z,101920.49
2017-11-17T19:33:32.731Z,101919.59
2017-11-17T19:35:58.699Z,101914.97
2017-11-17T19:38:24.509Z,101922.91
2017-11-17T19:40:50.475Z,101924.06
2017-11-17T19:43:16.270Z,101924.66
2017-11-17T19:45:42.054Z,101927.28
2017-11-17T19:48:07.846Z,101923.88
2017-11-17T19:50:33.776Z,101922.13
2017-11-17T19:52:59.611Z,101928.27
2017-11-17T19:55:25.406Z,101921.30
2017-11-17T19:57:51.202Z,101918.09
2017-11-17T20:00:19.993Z,101924.71
2017-11-17T20:02:45.816Z,101916.41
2017-11-17T20:05:11.631Z,101918.83
2017-11-17T20:07:37.428Z,101918.46
2017-11-17T20:10:03.213Z,101914.80
2017-11-17T20:12:29.192Z,101910.05
2017-11-17T20:14:54.998Z,101909.64
2017-11-17T20:17:20.793Z,101920.12
2017-11-17T20:19:46.580Z,101914.56
2017-11-17T20:22:12.574Z,101918.76
2017-11-17T20:24:38.396Z,101916.91
2017-11-17T20:27:04.194Z,101914.38
2017-11-17T20:29:29.977Z,101914.55
2017-11-17T20:31:55.763Z,101913.59
2017-11-17T20:34:21.547Z,101910.34
2017-11-17T20:36:47.333Z,101908.58
2017-11-17T20:39:13.129Z,101904.97
2017-11-17T20:41:38.913Z,101898.89
2017-11-17T20:44:04.717Z,101896.86
2017-11-17T20:46:30.710Z,101894.16
2017-11-17T20:48:56.493Z,101896.99
2017-11-17T20:51:22.286Z,101889.95
2017-11-17T20:53:48.089Z,101893.98
2017-11-17T20:56:13.877Z,101892.70
2017-11-17T20:58:40.707Z,101888.13
2017-11-17T21:01:06.621Z,101890.23
2017-11-17T21:03:32.414Z,101880.86
2017-11-17T21:05:58.202Z,101882.97
2017-11-17T21:08:23.986Z,101881.81
2017-11-17T21:10:49.781Z,101890.89
2017-11-17T21:13:15.606Z,101886.75
2017-11-17T21:15:41.558Z,101882.47
2017-11-17T21:18:07.354Z,101879.64
2017-11-17T21:20:33.147Z,101879.70
2017-11-17T21:22:58.952Z,101879.70
2017-11-17T21:25:24.747Z,101877.02
2017-11-17T21:27:51.553Z,101878.34
2017-11-17T21:30:17.350Z,101878.45
2017-11-17T21:32:43.137Z,101874.55
2017-11-17T21:35:08.932Z,101869.92
2017-11-17T21:37:34.969Z,101875.87
2017-11-17T21:40:00.791Z,101868.94
2017-11-17T21:42:26.591Z,101861.62
2017-11-17T21:44:52.377Z,101863.28
2017-11-17T21:47:18.184Z,101867.14
2017-11-17T21:49:44.963Z,101860.52
2017-11-17T21:52:10.888Z,101867.33
2017-11-17T21:54:36.678Z,101863.00
2017-11-17T21:57:02.461Z,101854.69
2017-11-17T21:59:28.439Z,101857.56
2017-11-17T22:01:54.285Z,101862.41
2017-11-17T22:04:20.069Z,101854.92
2017-11-17T22:06:45.890Z,101852.83
2017-11-17T22:09:11.835Z,101852.60
2017-11-17T22:11:41.727Z,101848.96
2017-11-17T22:14:07.554Z,101846.63
2017-11-17T22:16:33.352Z,101838.63
2017-11-17T22:18:59.183Z,101842.49
2017-11-17T22:21:24.957Z,101838.75
2017-11-17T22:23:50.746Z,101833.03
2017-11-17T22:26:16.541Z,101826.05
2017-11-17T22:28:42.336Z,101825.67
2017-11-17T22:31:08.130Z,101824.86
2017-11-17T22:33:33.925Z,101828.05
2017-11-17T22:35:59.709Z,101817.66
2017-11-17T22:38:25.497Z,101822.45
2017-11-17T22:40:51.324Z,101819.27
2017-11-17T22:43:17.250Z,101809.52
2017-11-17T22:45:43.025Z,101802.90
2017-11-17T22:48:08.814Z,101803.01
2017-11-17T22:50:34.596Z,101802.45
2017-11-17T22:53:00.422Z,101803.92
2017-11-17T22:55:26.305Z,101794.39
2017-11-17T22:57:52.085Z,101790.63
2017-11-17T23:00:19.175Z,101787.84
2017-11-17T23:02:44.985Z,101786.03
2017-11-17T23:05:10.773Z,101781.19
2017-11-17T23:07:36.549Z,101781.61
2017-11-17T23:10:02.372Z,101780.14
2017-11-17T23:12:28.161Z,101776.15
2017-11-17T23:14:53.990Z,101767.70
2017-11-17T23:17:19.770Z,101761.45
2017-11-17T23:19:45.569Z,101763.84
2017-11-17T23:22:11.375Z,101761.33
2017-11-17T23:24:37.206Z,101754.41
2017-11-17T23:27:03.044Z,101749.59
2017-11-17T23:29:28.822Z,101747.73
2017-11-17T23:31:54.632Z,101745.15
2017-11-17T23:34:20.434Z,101749.77
2017-11-17T23:36:46.374Z,101740.93
2017-11-17T23:39:12.169Z,101735.09
2017-11-17T23:41:37.945Z,101744.58
2017-11-17T23:44:03.728Z,101736.84
2017-11-17T23:46:29.527Z,101739.17
2017-11-17T23:48:55.324Z,101732.22
2017-11-17T23:51:21.128Z,101734.48
2017-11-17T23:53:46.913Z,101731.81
2017-11-17T23:56:12.702Z,101737.63
2017-11-17T23:58:38.524Z,101735.64
